createdAt,value
2019-06-10T00:02:36.310Z,8.98
2019-06-10T00:05:22.296Z,6.17
2019-06-10T00:08:05.424Z,6.70
2019-06-10T00:10:56.196Z,7.35
2019-06-10T00:13:31.391Z,10.00
2019-06-10T00:16:05.923Z,7.37
2019-06-10T00:21:25.417Z,9.10
2019-06-10T00:29:42.518Z,7.03
2019-06-10T00:32:21.409Z,9.90
2019-06-10T00:35:21.051Z,7.87
2019-06-10T00:37:42.893Z,9.83
2019-06-10T00:40:15.569Z,8.18
2019-06-10T00:42:50.788Z,9.70
2019-06-10T00:45:25.282Z,7.33
2019-06-10T00:48:07.664Z,7.96
2019-06-10T00:50:34.441Z,6.47
2019-06-10T00:53:14.252Z,5.75
2019-06-10T00:55:51.594Z,9.93
2019-06-10T00:58:51.889Z,10.15
2019-06-10T01:01:23.414Z,10.03
2019-06-10T01:03:55.853Z,10.90
2019-06-10T01:06:42.156Z,8.60
2019-06-10T01:09:14.763Z,9.70
2019-06-10T01:11:55.738Z,7.83
2019-06-10T01:17:42.659Z,6.45
2019-06-10T01:20:21.092Z,6.87
2019-06-10T01:23:13.806Z,8.73
2019-06-10T01:25:46.659Z,12.53
2019-06-10T01:28:22.094Z,8.63
2019-06-10T01:31:01.060Z,11.93
2019-06-10T01:33:40.976Z,9.23
2019-06-10T01:36:16.396Z,9.70
2019-06-10T01:38:47.658Z,12.07
2019-06-10T01:41:21.357Z,8.93
2019-06-10T01:43:58.427Z,10.75
2019-06-10T01:46:33.765Z,10.98
2019-06-10T01:51:51.973Z,10.13
2019-06-10T01:54:31.674Z,9.65
2019-06-10T01:57:15.381Z,8.93
2019-06-10T01:59:50.919Z,7.45
2019-06-10T02:08:00.580Z,8.08
2019-06-10T02:10:33.292Z,10.53
2019-06-10T02:13:07.379Z,10.78
2019-06-10T02:15:41.029Z,10.00
2019-06-10T02:18:15.337Z,8.08
2019-06-10T02:20:47.982Z,9.85
2019-06-10T02:23:22.977Z,10.85
2019-06-10T02:29:05.648Z,6.63
2019-06-10T02:31:38.283Z,7.70
2019-06-10T02:34:13.253Z,9.13
2019-06-10T02:36:44.903Z,9.50
2019-06-10T02:39:25.821Z,8.43
2019-06-10T02:41:53.717Z,12.00
2019-06-10T02:44:33.369Z,10.13
2019-06-10T02:47:03.168Z,9.30
2019-06-10T02:49:51.620Z,8.00
2019-06-10T02:52:29.270Z,11.50
2019-06-10T02:54:55.343Z,9.58
2019-06-10T02:57:35.136Z,8.66
2019-06-10T03:00:06.446Z,8.73
2019-06-10T03:02:37.310Z,10.23
2019-06-10T03:05:13.910Z,8.80
2019-06-10T03:07:44.854Z,10.48
2019-06-10T03:10:20.717Z,12.07
2019-06-10T03:16:06.514Z,9.15
2019-06-10T03:18:43.461Z,9.03
2019-06-10T03:21:44.766Z,7.07
2019-06-10T03:24:32.802Z,10.00
2019-06-10T03:27:05.491Z,10.00
2019-06-10T03:29:49.226Z,9.23
2019-06-10T03:32:20.174Z,8.50
2019-06-10T03:35:05.422Z,9.73
2019-06-10T03:41:33.281Z,10.90
2019-06-10T03:44:06.517Z,8.73
2019-06-10T03:46:39.313Z,10.15
2019-06-10T03:49:12.625Z,9.70
2019-06-10T03:51:45.390Z,10.10
2019-06-10T03:54:17.772Z,11.05
2019-06-10T03:56:52.086Z,12.43
2019-06-10T03:59:27.805Z,9.88
2019-06-10T04:01:59.282Z,8.12
2019-06-10T04:04:32.841Z,9.00
2019-06-10T04:07:05.701Z,8.50
2019-06-10T04:09:42.521Z,8.75
2019-06-10T04:12:15.286Z,9.08
2019-06-10T04:14:49.052Z,11.48
2019-06-10T04:17:22.678Z,10.90
2019-06-10T04:20:08.112Z,10.15
2019-06-10T04:25:03.072Z,12.10
2019-06-10T04:27:35.770Z,8.98
2019-06-10T04:32:44.675Z,9.48
2019-06-10T04:35:18.353Z,9.70
2019-06-10T04:37:52.040Z,10.93
2019-06-10T04:40:26.656Z,11.45
2019-06-10T04:42:59.456Z,7.44
2019-06-10T04:45:32.586Z,11.05
2019-06-10T04:48:05.111Z,10.58
2019-06-10T04:50:45.468Z,9.70
2019-06-10T04:53:12.912Z,8.90
2019-06-10T04:55:45.654Z,10.23
2019-06-10T04:58:19.389Z,10.80
2019-06-10T05:00:52.458Z,9.38
2019-06-10T05:03:26.799Z,11.80
2019-06-10T05:06:05.337Z,11.96
2019-06-10T05:11:09.344Z,12.23
2019-06-10T05:13:42.836Z,7.10
2019-06-10T05:16:15.594Z,8.65
2019-06-10T05:18:51.623Z,7.55
2019-06-10T05:21:25.075Z,5.50
2019-06-10T05:23:57.014Z,7.15
2019-06-10T05:26:33.667Z,4.78
2019-06-10T05:29:06.820Z,5.87
2019-06-10T05:37:03.567Z,5.75
2019-06-10T05:46:18.064Z,11.18
2019-06-10T05:54:33.572Z,6.58
2019-06-10T05:57:53.273Z,7.33
2019-06-10T06:01:19.329Z,5.25
2019-06-10T06:08:42.647Z,9.27
2019-06-10T06:11:14.759Z,7.45
2019-06-10T06:13:47.293Z,7.35
2019-06-10T06:16:46.681Z,6.92
2019-06-10T06:19:19.291Z,7.15
2019-06-10T06:21:53.066Z,5.42
2019-06-10T06:24:27.472Z,5.68
2019-06-10T06:27:03.882Z,6.62
2019-06-10T06:29:38.167Z,4.83
2019-06-10T06:32:13.060Z,4.70
2019-06-10T06:34:45.302Z,5.50
2019-06-10T06:37:17.814Z,6.87
2019-06-10T06:39:52.340Z,5.42
2019-06-10T06:42:24.943Z,6.40
2019-06-10T06:44:57.354Z,8.15
2019-06-10T06:47:34.018Z,8.45
2019-06-10T06:50:06.052Z,7.17
2019-06-10T06:53:12.585Z,5.22
2019-06-10T06:55:14.657Z,6.03
2019-06-10T06:57:48.504Z,6.42
2019-06-10T07:00:52.985Z,4.10
2019-06-10T07:03:15.805Z,5.70
2019-06-10T07:05:52.902Z,6.67
2019-06-10T07:08:27.862Z,7.37
2019-06-10T07:11:06.299Z,6.05
2019-06-10T07:13:45.534Z,4.25
2019-06-10T07:16:17.514Z,5.50
2019-06-10T07:18:50.627Z,5.97
2019-06-10T07:21:40.453Z,5.52
2019-06-10T07:24:12.656Z,8.13
2019-06-10T07:27:09.921Z,7.10
2019-06-10T07:29:46.994Z,8.45
2019-06-10T07:32:18.619Z,5.87
2019-06-10T07:34:52.466Z,6.65
2019-06-10T07:37:25.302Z,8.65
2019-06-10T07:39:57.721Z,4.67
2019-06-10T07:42:32.850Z,9.38
2019-06-10T07:45:14.700Z,8.75
2019-06-10T07:47:53.505Z,7.40
2019-06-10T07:50:33.314Z,8.13
2019-06-10T07:53:07.836Z,3.77
2019-06-10T07:55:46.257Z,5.60
2019-06-10T07:58:18.389Z,5.12
2019-06-10T08:01:04.390Z,7.10
2019-06-10T08:03:46.593Z,6.27
2019-06-10T08:06:22.956Z,10.40
2019-06-10T08:09:02.293Z,6.85
2019-06-10T08:14:09.807Z,6.10
2019-06-10T08:16:46.050Z,6.57
2019-06-10T08:19:34.989Z,2.98
2019-06-10T08:22:04.627Z,6.33
2019-06-10T08:24:55.698Z,6.90
2019-06-10T08:27:33.586Z,7.70
2019-06-10T08:30:27.381Z,7.00
2019-06-10T08:33:13.750Z,6.42
2019-06-10T08:35:57.290Z,7.70
2019-06-10T08:38:23.528Z,4.47
2019-06-10T08:40:57.424Z,5.75
2019-06-10T08:46:02.603Z,5.53
2019-06-10T08:48:35.349Z,5.60
2019-06-10T08:51:07.783Z,8.93
2019-06-10T08:53:44.172Z,5.28
2019-06-10T08:56:16.588Z,9.10
2019-06-10T08:58:50.917Z,16.55
2019-06-10T09:01:23.605Z,7.60
2019-06-10T09:03:56.315Z,4.95
2019-06-10T09:06:29.120Z,5.00
2019-06-10T09:09:03.160Z,9.10
2019-06-10T09:11:40.548Z,7.45
2019-06-10T09:14:13.308Z,6.83
2019-06-10T09:16:48.613Z,9.38
2019-06-10T09:19:22.189Z,10.25
2019-06-10T09:21:56.319Z,9.43
2019-06-10T09:24:28.794Z,5.33
2019-06-10T09:27:02.891Z,4.37
2019-06-10T09:29:35.751Z,7.00
2019-06-10T09:32:08.294Z,4.75
2019-06-10T09:34:43.084Z,5.55
2019-06-10T09:37:15.704Z,32.28
2019-06-10T09:39:53.980Z,6.55
2019-06-10T09:42:23.888Z,4.40
2019-06-10T09:44:56.662Z,3.15
2019-06-10T09:47:29.854Z,3.85
2019-06-10T09:50:03.214Z,4.90
2019-06-10T09:52:36.297Z,6.92
2019-06-10T09:57:45.134Z,4.22
2019-06-10T10:00:24.308Z,4.00
2019-06-10T10:02:56.724Z,6.08
2019-06-10T10:05:33.681Z,6.22
2019-06-10T10:08:05.989Z,5.55
2019-06-10T10:10:42.834Z,5.62
2019-06-10T10:13:15.314Z,6.75
2019-06-10T10:15:48.233Z,4.15
2019-06-10T10:20:58.636Z,6.20
2019-06-10T10:23:28.443Z,4.70
2019-06-10T10:26:03.174Z,4.72
2019-06-10T10:28:34.690Z,6.10
2019-06-10T10:31:07.302Z,6.77
2019-06-10T10:33:42.634Z,7.60
2019-06-10T10:38:46.880Z,6.22
2019-06-10T10:41:19.323Z,6.15
2019-06-10T10:43:56.573Z,8.15
2019-06-10T10:46:26.642Z,7.28
2019-06-10T10:51:32.670Z,7.08
2019-06-10T10:54:32.220Z,4.37
2019-06-10T10:59:13.294Z,17.07
2019-06-10T11:01:45.814Z,8.20
2019-06-10T11:06:49.749Z,6.30
2019-06-10T11:09:26.618Z,8.50
2019-06-10T11:12:02.826Z,5.03
2019-06-10T11:14:36.293Z,5.35
2019-06-10T11:17:09.074Z,5.85
2019-06-10T11:19:43.348Z,7.83
2019-06-10T11:22:15.821Z,4.53
2019-06-10T11:24:49.311Z,6.83
2019-06-10T11:27:22.741Z,3.08
2019-06-10T11:29:57.831Z,9.18
2019-06-10T11:32:43.398Z,6.00
2019-06-10T11:35:27.421Z,3.87
2019-06-10T11:40:34.166Z,7.35
2019-06-10T11:43:06.700Z,10.45
2019-06-10T11:45:45.724Z,8.83
2019-06-10T11:48:13.881Z,4.87
2019-06-10T11:50:54.358Z,5.22
2019-06-10T11:53:28.691Z,4.75
2019-06-10T11:56:02.411Z,4.10
2019-06-10T11:58:34.754Z,7.58
2019-06-10T12:01:07.762Z,18.57
2019-06-10T12:03:42.976Z,4.37
2019-06-10T12:06:14.809Z,4.62
2019-06-10T12:11:24.610Z,18.70
2019-06-10T12:14:02.232Z,6.72
2019-06-10T12:17:15.583Z,4.92
2019-06-10T12:19:06.479Z,7.08
2019-06-10T12:26:44.800Z,2.98
2019-06-10T12:29:17.689Z,5.22
2019-06-10T12:31:50.721Z,7.22
2019-06-10T12:34:24.606Z,3.30
2019-06-10T12:37:03.543Z,6.92
2019-06-10T12:39:31.661Z,7.12
2019-06-10T12:42:06.416Z,5.22
2019-06-10T12:44:38.742Z,6.37
2019-06-10T12:47:11.309Z,16.97
2019-06-10T12:49:44.011Z,5.42
2019-06-10T12:52:16.618Z,6.50
2019-06-10T12:54:49.274Z,12.58
2019-06-10T12:57:22.935Z,8.45
2019-06-10T12:59:56.336Z,8.68
2019-06-10T13:05:05.684Z,6.83
2019-06-10T13:07:42.714Z,6.55
2019-06-10T13:10:18.643Z,4.65
2019-06-10T13:13:09.149Z,5.62
2019-06-10T13:15:43.344Z,5.65
2019-06-10T13:18:19.570Z,6.73
2019-06-10T13:20:50.444Z,9.55
2019-06-10T13:23:31.331Z,6.53
2019-06-10T13:26:01.338Z,6.80
2019-06-10T13:28:32.500Z,9.20
2019-06-10T13:31:07.985Z,10.27
2019-06-10T13:33:39.719Z,6.00
2019-06-10T13:36:13.292Z,10.40
2019-06-10T13:38:45.810Z,4.37
2019-06-10T13:41:18.368Z,9.93
2019-06-10T13:43:52.700Z,8.18
2019-06-10T13:46:25.398Z,11.12
2019-06-10T13:49:02.050Z,12.45
2019-06-10T13:51:35.785Z,9.64
2019-06-10T13:54:09.678Z,7.10
2019-06-10T13:56:47.442Z,8.07
2019-06-10T13:59:18.794Z,15.80
2019-06-10T14:01:53.193Z,19.80
2019-06-10T14:04:25.909Z,29.98
2019-06-10T14:07:02.414Z,17.70
2019-06-10T14:09:35.303Z,18.40
2019-06-10T14:12:08.060Z,46.08
2019-06-10T14:14:42.522Z,18.60
2019-06-10T14:17:19.552Z,16.15
2019-06-10T14:19:56.063Z,13.38
2019-06-10T14:22:28.697Z,28.32
2019-06-10T14:25:03.349Z,19.42
2019-06-10T14:34:37.703Z,20.12
2019-06-10T14:37:12.839Z,14.95
2019-06-10T14:39:45.282Z,24.60
2019-06-10T14:42:17.770Z,26.07
2019-06-10T14:44:52.545Z,18.05
2019-06-10T14:47:26.411Z,23.62
2019-06-10T14:50:03.276Z,11.97
2019-06-10T14:52:35.891Z,8.62
2019-06-10T14:55:11.255Z,10.60
2019-06-10T14:57:44.447Z,8.30
2019-06-10T15:00:18.445Z,16.77
2019-06-10T15:02:53.883Z,8.80
2019-06-10T15:05:25.796Z,8.13
2019-06-10T15:08:03.161Z,8.25
2019-06-10T15:10:35.384Z,7.06
2019-06-10T15:13:08.295Z,6.80
2019-06-10T15:15:42.428Z,6.20
2019-06-10T15:18:17.984Z,6.40
2019-06-10T15:23:23.521Z,7.40
2019-06-10T15:25:57.123Z,7.17
2019-06-10T15:28:31.470Z,4.88
2019-06-10T15:31:04.478Z,10.10
2019-06-10T15:33:37.311Z,7.30
2019-06-10T15:36:11.146Z,5.75
2019-06-10T15:38:44.140Z,6.47
2019-06-10T15:41:19.982Z,6.87
2019-06-10T15:43:53.020Z,14.15
2019-06-10T15:46:27.055Z,10.45
2019-06-10T15:49:02.356Z,12.43
2019-06-10T15:51:35.303Z,13.58
2019-06-10T15:54:08.313Z,12.15
2019-06-10T15:56:49.964Z,9.48
2019-06-10T16:02:02.413Z,7.97
2019-06-10T16:04:35.283Z,10.43
2019-06-10T16:07:08.345Z,10.50
2019-06-10T16:09:42.383Z,8.40
2019-06-10T16:12:17.925Z,6.42
2019-06-10T16:14:49.623Z,6.83
2019-06-10T16:17:23.299Z,8.23
2019-06-10T16:19:56.331Z,10.63
2019-06-10T16:22:29.302Z,7.42
2019-06-10T16:25:03.418Z,7.85
2019-06-10T16:27:47.193Z,10.24
2019-06-10T16:30:14.690Z,9.05
2019-06-10T16:32:47.370Z,8.88
2019-06-10T16:35:21.473Z,7.03
2019-06-10T16:37:57.002Z,11.40
2019-06-10T16:40:32.384Z,13.72
2019-06-10T16:43:06.471Z,6.03
2019-06-10T16:45:43.302Z,9.60
2019-06-10T16:48:17.101Z,7.72
2019-06-10T16:50:49.798Z,10.23
2019-06-10T16:53:27.975Z,9.88
2019-06-10T16:55:57.329Z,7.67
2019-06-10T16:58:30.342Z,7.37
2019-06-10T17:03:38.966Z,8.18
2019-06-10T17:06:13.079Z,9.20
2019-06-10T17:08:45.988Z,6.40
2019-06-10T17:13:52.683Z,6.17
2019-06-10T17:18:58.761Z,7.92
2019-06-10T17:21:34.643Z,6.58
2019-06-10T17:24:06.918Z,24.42
2019-06-10T17:26:39.900Z,8.23
2019-06-10T17:29:14.387Z,30.25
2019-06-10T17:31:46.864Z,11.87
2019-06-10T17:34:20.559Z,12.13
2019-06-10T17:36:54.011Z,8.33
2019-06-10T17:39:29.806Z,9.93
2019-06-10T17:42:02.763Z,10.95
2019-06-10T17:44:35.663Z,12.43
2019-06-10T17:47:10.464Z,12.88
2019-06-10T17:49:43.651Z,11.47
2019-06-10T17:52:17.853Z,15.77
2019-06-10T17:54:55.457Z,15.20
2019-06-10T17:57:29.888Z,14.87
2019-06-10T18:00:11.547Z,18.48
2019-06-10T18:02:44.093Z,10.95
2019-06-10T18:05:16.854Z,12.07
2019-06-10T18:07:49.812Z,11.95
2019-06-10T18:10:24.047Z,15.75
2019-06-10T18:13:10.168Z,14.30
2019-06-10T18:15:35.416Z,13.78
2019-06-10T18:18:07.344Z,16.88
2019-06-10T18:20:40.082Z,12.65
2019-06-10T18:23:13.534Z,14.13
2019-06-10T18:25:46.469Z,13.53
2019-06-10T18:28:26.966Z,14.05
2019-06-10T18:31:02.822Z,14.46
2019-06-10T18:33:38.028Z,10.90
2019-06-10T18:36:12.191Z,14.53
2019-06-10T18:38:47.360Z,16.40
2019-06-10T18:41:22.172Z,15.60
2019-06-10T18:43:54.541Z,13.58
2019-06-10T18:46:27.922Z,20.15
2019-06-10T18:49:02.652Z,17.37
2019-06-10T18:51:37.335Z,15.53
2019-06-10T18:54:09.983Z,16.50
2019-06-10T18:56:47.049Z,20.07
2019-06-10T18:59:21.207Z,17.42
2019-06-10T19:01:54.340Z,18.62
2019-06-10T19:04:28.409Z,20.45
2019-06-10T19:07:02.918Z,24.40
2019-06-10T19:12:09.601Z,19.05
2019-06-10T19:17:17.454Z,17.07
2019-06-10T19:19:49.879Z,21.33
2019-06-10T19:22:22.621Z,21.23
2019-06-10T19:24:56.376Z,22.07
2019-06-10T19:27:34.907Z,22.27
2019-06-10T19:30:09.747Z,22.05
2019-06-10T19:32:47.372Z,18.55
2019-06-10T19:35:22.357Z,22.13
2019-06-10T19:37:55.330Z,19.77
2019-06-10T19:40:29.310Z,16.90
2019-06-10T19:43:03.660Z,19.38
2019-06-10T19:45:36.336Z,26.00
2019-06-10T19:48:12.426Z,21.23
2019-06-10T19:50:50.097Z,24.40
2019-06-10T19:53:22.038Z,19.20
2019-06-10T19:55:53.856Z,28.38
2019-06-10T19:58:26.452Z,23.47
2019-06-10T20:00:59.357Z,30.17
2019-06-10T20:03:37.690Z,29.12
2019-06-10T20:06:12.976Z,30.57
2019-06-10T20:08:47.303Z,31.95
2019-06-10T20:11:22.901Z,33.43
2019-06-10T20:13:57.009Z,28.80
2019-06-10T20:16:30.056Z,36.08
2019-06-10T20:19:15.934Z,30.43
2019-06-10T20:21:49.095Z,34.13
2019-06-10T20:24:22.236Z,29.15
2019-06-10T20:26:55.073Z,21.45
2019-06-10T20:29:27.920Z,18.90
2019-06-10T20:32:04.649Z,20.48
2019-06-10T20:34:41.316Z,49.10
2019-06-10T20:37:33.295Z,38.47
2019-06-10T20:40:09.525Z,34.98
2019-06-10T20:42:44.471Z,45.67
2019-06-10T20:45:19.065Z,28.65
2019-06-10T20:47:53.405Z,43.25
2019-06-10T21:00:28.033Z,28.30
2019-06-10T21:14:15.090Z,26.70
2019-06-10T21:16:57.467Z,23.87
2019-06-10T21:22:12.884Z,36.13
2019-06-10T21:24:46.790Z,27.10
2019-06-10T21:27:24.387Z,29.80
2019-06-10T21:30:02.832Z,25.57
2019-06-10T21:32:41.704Z,28.32
2019-06-10T21:35:14.661Z,22.48
2019-06-10T21:37:49.761Z,17.90
2019-06-10T21:40:24.302Z,17.23
2019-06-10T21:42:59.130Z,24.20
2019-06-10T21:45:36.418Z,26.17
2019-06-10T21:48:12.401Z,27.18
2019-06-10T21:50:48.125Z,24.45
2019-06-10T21:53:22.164Z,20.05
2019-06-10T21:55:55.281Z,24.15
2019-06-10T21:58:28.336Z,21.48
2019-06-10T22:01:12.064Z,21.20
2019-06-10T22:03:35.715Z,26.55
2019-06-10T22:06:08.327Z,24.00
2019-06-10T22:08:44.080Z,25.08
2019-06-10T22:11:17.004Z,24.02
2019-06-10T22:13:50.769Z,22.73
2019-06-10T22:16:24.297Z,25.30
2019-06-10T22:18:56.822Z,24.75
2019-06-10T22:21:29.721Z,29.02
2019-06-10T22:24:02.429Z,25.65
2019-06-10T22:26:34.886Z,37.55
2019-06-10T22:29:07.537Z,31.82
2019-06-10T22:31:42.743Z,26.02
2019-06-10T22:34:15.590Z,24.37
2019-06-10T22:36:49.577Z,21.17
2019-06-10T22:39:23.807Z,22.40
2019-06-10T22:41:57.042Z,22.62
2019-06-10T22:44:29.778Z,22.70
2019-06-10T22:47:02.911Z,18.48
2019-06-10T22:49:35.792Z,23.55
2019-06-10T22:52:08.399Z,22.67
2019-06-10T22:54:42.989Z,22.58
2019-06-10T22:57:15.390Z,22.05
2019-06-10T22:59:51.250Z,22.52
2019-06-10T23:02:24.293Z,40.17
2019-06-10T23:04:59.360Z,26.20
2019-06-10T23:07:32.860Z,28.73
2019-06-10T23:10:12.319Z,28.50
2019-06-10T23:12:45.149Z,25.32
2019-06-10T23:17:51.596Z,20.65
2019-06-10T23:22:57.689Z,26.55
2019-06-10T23:25:32.646Z,26.30
2019-06-10T23:30:42.693Z,49.50
2019-06-10T23:33:15.808Z,88.30
2019-06-10T23:35:50.212Z,34.03
2019-06-10T23:38:23.726Z,21.37
2019-06-10T23:40:57.019Z,36.25
2019-06-10T23:43:29.791Z,22.77
2019-06-10T23:46:04.409Z,15.72
2019-06-10T23:48:44.683Z,25.25
2019-06-10T23:51:19.389Z,24.20
2019-06-10T23:53:55.344Z,17.60
2019-06-10T23:56:26.707Z,32.98
